Ritzville, WA

5:59 AM PST on January 29, 2015 (GMT -0800)
Grant County International | Change Station
CLOSE
Current Station
Airport
Location: Moses Lake,
Elevation: 1184 ft
Nearby Weather Stations

Elev 1184 ft 47.21 °N, 119.32 °W | Updated 7 minutes ago

Fog
Fog
36 °F
Feels Like 30 °F
N
7
Wind Variable Wind from North

Today
High -- | Low -- °F
--% Chance of Precip.
Yesterday
High -- | Low -- °F
Precip. -- in
7:22 AM 4:51 PM
Waxing Gibbous, 74% visible
Pressure 30.50 in
Visibility 10.0 miles
Clouds Overcast 1100 ft
Windchill 30 °F
Dew Point 32 °F
Humidity 86%
Rainfall 0.00 in
Snow Depth Not available.
UV 0 out of 12
Pollen .10 out of 12
Air Quality Not available.
Flu Activity Not available.
METAR KMWH 291352Z 36006KT 10SM OVC011 02/00 A3046 RMK AO2 SLP326 T00220000

More Conditions Fewer Conditions

Pressure 30.50 in
Visibility 10.0 miles
Clouds Overcast 1100 ft
Windchill 30 °F
Dew Point 32 °F
Humidity 86%
Rainfall 0.00 in
Snow Depth Not available.
UV 0 out of 12
Pollen .10 out of 12
Air Quality Not available.
Flu Activity Not available.
METAR KMWH 291352Z 36006KT 10SM OVC011 02/00 A3046 RMK AO2 SLP326 T00220000

More Conditions Fewer Conditions

Nowcast | as of 11:55 PM PST on January 28, 2015

Areas of fog will continue to impact many valley locations of northeast Washington and the northern Idaho Panhandle overnight. The fog is expected to be dense at times with temperatures near or just below freezing. The moisture from the fog combined with the cool temperatures will likely lead to some slick roadways. This will be especially true on lesser traveled secondary roads. Motorists can also expect rapid fluctuations in visibility down to a quarter of a mile in places including on i90 from Ritzville east to the Idaho-Montana border.

×

10-Day Weather Forecast

Almanac

Astronomy

Jan. 29, 2015 Rise Set
Actual Time
Civil Twilight
Nautical Twilight
Astronomical Twilight
Moon
Length of Visible Light
Length of Day
Tomorrow will be .
, % of the Moon is Illuminated

Today's Extremes

State Highs State Lows

Community

WunderPhotos

Upload Photos

1,791,428 photos uploaded!

WunderBlogs® & News

Nearby

Air Quality

  Air Quality AQ Index Pollutant
Not available.

Snow Depth

Station Depth Elevation

Earthquake Activity

City Distance Mag. Time & Date
Minimum magnitude displayed is 2.5.

Coastal Water Temperatures

Place Temperature

Nearby Weather Stations